Startpagina
METAR-TAF:

METAR-TAF

Vliegvelden :

Indore, India

breedte: 22-43N, lengte: 075-48E, hoogte: 561 m

Actueel weer

Dit bericht is 2 uur en het 7 minuten geleden gemaakt, om 16:00 UTC
Wind 3 kt uit het westzuidwesten
Temperatuur 19°C
Vochtigheid 46%
Druk 1015 hPa
Zicht: 6000 m

METAR: VAID 171600Z 24003KT 6000 NSC 19/07 Q1015 NOSIG

Tijdstip: 23:37 (18:07 UTC)

Verwachting

Dit bericht is 1 uur en het 7 minuten geleden gemaakt, om 17:00 UTC
Verwachting geldig van 17 om 18 UTC tot 18 om 03 UTC
Wind 3 kt uit variabele richting
Zicht: 3000 m
Heiigheid
Tijdelijke
van 18 om 00 UTC tot 18 om 03 UTC
Zicht: 1500 m
nevel, Heiigheid

TAF: VAID 171700Z 1718/1803 VRB03KT 3000 HZ NSC TEMPO 1800/1803 1500 BR HZ

Waarnemingen en weersverwachtingen van meer dan 4000 vliegvelden (METAR en TAF).

De beschikbare stations zijn de gele en rode punten op de kaart.

Ga met uw muis naar het station om de naam te zien.

Klik dan om waarnemingen en weersverwachtingen te zien.

kaart wijzigen: klik op de groene knoppen met een zwart kruis om in te zoomen, op de groene knop met een streepje om uit te zoomen of op de groene pijlen voor aangrenzende kaarten.


METAR-TAF: